Terminal Aerodrome Forecast
Issued by NWS Atlanta, GA

Home | Current Version | Previous Version | Text Only | Print | Product List | Glossary On
Versions: 1 2 3 4 5 6 7 8 9 10 11 12 13 14 15 16 17 18 19 20 21 22 23 24 25 26 27 28 29 30 31 32 33 34 35 36 37 38 39 40
000
FTAK31 PAJN 220500
TAFAHN
TAF
PAHN 220531Z 2206/2306 09020G30KT 6SM -RA BR BKN012 OVC025
     FM221100 10012G22KT 5SM -SHRA BR SCT015 OVC025
     FM221600 09012G19KT P6SM -SHRA OVC025
     FM221900 11010G18KT P6SM VCSH SCT025 BKN035 OVC050
     FM222200 11010KT P6SM VCSH BKN040 OVC050
     FM230300 09005KT P6SM VCSH BKN045 OVC050
      AMD LTD TO CLD VIS AND WIND=

USA.gov is the U.S. government's official web portal to all federal, state and local government web resources and services.